メインページ
METAR-TAF:

METAR-TAF

空港 :

ジュネーヴ, スイス

ジュネーヴ空港

緯度: 46-15N, 経度: 006-08E, 海抜: 420m

現時点の気象観測

当レポートは35分前の05:50(UTC)に作成
南/南西の風 11kt
気温 7°C
湿度 87%
気圧 1009 hPa
視程10km以上
高度1800ftの雲はほとんどない
高度4000ftの千切れ雲あり
高度9000ftの千切れ雲あり

METAR: LSGG 140550Z 21011KT 9999 FEW018 BKN040 BKN090 07/05 Q1009 NOSIG

時間: 07:25 (06:25 UTC)

予報

当レポートは1時間0分前の05:25(UTC)に作成
予報は14日の 06時(UTC)から 15日の 12時(UTC)まで有効
西/南西の風 12kt、最大22ktの突風を伴う
視程10km以上
高度2000ftの雲はほとんどない
高度2500ftの千切れ雲あり
小雨
14日の 06時(UTC)から 15日の 06時(UTC)まで一時的に
確率 30% :
14日の 21時(UTC)から 14日の 24時(UTC)まで一時的に
視程: 4500m
大雨
確率 40% :
14日の 21時(UTC)から 15日の 01時(UTC)まで一時的に
西/南西の風 25kt、最大35ktの突風を伴う
高度2000ftの雲は散在している, 積乱雲.
激しい雷雨

TAF: LSGG 140525Z 1406/1512 25012G22KT 9999 -RA FEW020 BKN025 TX08/1414Z TN06/1406Z TN04/1505Z TEMPO 1406/1506 RA PROB30 TEMPO 1421/1424 4500 +RA PROB40 TEMPO 1421/1501 25025G35KT TS SCT020CB

4,000以上の空港の気象観測と天気予報(METAR報とTAF報)

利用可能な観測所は地図上に黄色い丸と赤い丸で示す。

丸の上にカーソルを重ねると観測所名を参照できる。

次にクリックすると気象観測と天気予報を参照できる。

マップの切り替え:黒色「×」印の緑ボタンをクリックして拡大、「-」印の緑ボタンをクリックして縮小、緑色の三角印をクリックして隣りの地図に切り替え


METAR-TAF: